Trinity, Kentucky
Current Conditions -  °F | °C
As of 4:15 AM on Monday 22 Dec 2014 (Local Time) from KFGX Reporting Station
Overcast Overcast  
Wind Chill: 32°   Ceiling: 5000
Heat Index: 32°   Visibility: 10mi
Dew Point: 29°   Wind: 3mph
Humidity: 88%   Direction: 90°E
Pressure: 30.04"   Gusts: NA
Location:  38.4929°N, 83.3898°W
Report Text: KFGX 220915Z AUTO 09003KT 10SM SCT040 OVC050 00/M02 A3004 RMK AO2 T00001017
Loading
Personal Weather Stations






























Interactive Weather Map New forecast layout! Learn more

10-Day Weather Forecast

Advertisements
Track Severe Weather on mobile